Startpagina
METAR-TAF:

METAR-TAF

Vliegvelden :

Praag, Tsjechië

Luchthaven van Praag

breedte: 50-06N, lengte: 014-15E, hoogte: 365 m

Actueel weer

Dit bericht is 18 minuten geleden gemaakt, om 12:00 UTC
Wind 17 kt uit het westzuidwesten
Temperatuur 4°C
Vochtigheid 75%
Druk 1010 hPa
Zicht 10 km of meer
Gebroken wolken op 2700 ft
Gebroken wolken op 4000 ft

METAR: LKPR 191200Z 25017KT 9999 BKN027 BKN040 04/M00 Q1010 NOSIG

Tijdstip: 13:18 (12:18 UTC)

Verwachting

Dit bericht is 1 uur en het 18 minuten geleden gemaakt, om 11:00 UTC
Verwachting geldig van 19 om 12 UTC tot 20 om 18 UTC
Wind 14 kt uit het westzuidwesten
Zicht 10 km of meer
Gebroken wolken op 3500 ft
Tijdelijke
van 19 om 12 UTC tot 20 om 18 UTC
Wind 16 kt uit het westen met uitschieters tot 30 kt
Zicht: 3000 m
Verspreide wolken op 1000 ft, Stapelwolken.
Gebroken wolken op 1300 ft
regenbuien, sneeuw

TAF: LKPR 191100Z 1912/2018 24014KT 9999 BKN035 TEMPO 1912/2018 27016G30KT 3000 SHRASN SCT010TCU BKN013

Waarnemingen en weersverwachtingen van meer dan 4000 vliegvelden (METAR en TAF).

De beschikbare stations zijn de gele en rode punten op de kaart.

Ga met uw muis naar het station om de naam te zien.

Klik dan om waarnemingen en weersverwachtingen te zien.

kaart wijzigen: klik op de groene knoppen met een zwart kruis om in te zoomen, op de groene knop met een streepje om uit te zoomen of op de groene pijlen voor aangrenzende kaarten.


METAR-TAF: